Gan-tribute — C6YK6 — position and weather

sailwx.info

Track history (hours):
 
Tides and Currents Weather Stations Pressure Air Temp Water Temp Dewpoint Dewpoint Depression Visibility Wind Speed Wind Dir Waves Ship Positions

Gan-tribute

Last reported at 2018-Jun-06 05:25 UTC. Time now 2018-Jun-22 13:30 UTC.
Position N 09°39' W 079°58'.
Warning: this ship's position is 16 days out of date.

Length 183 m; draft 8.1 m.

Type: Tanker. MMSI: 311036600.

Date/timePositionNaut miles runAvg speedWind from/ knotsBaromVisibWave heightAir tempDewpointWater temp
2018-Jun-06 05:25N 09°39' W 079°58'511.6
2018-Jun-06 04:59N 09°34' W 079°56'612.9
2018-Jun-06 04:30N 09°28' W 079°55'612.4
2018-Jun-06 04:01N 09°22' W 079°55'0 0.8
2018-Jun-06 03:30N 09°22' W 079°55'0 0.0
2018-Jun-06 03:00N 09°22' W 079°55'0 0.0
2018-Jun-06 02:30N 09°22' W 079°55'0 0.1
2018-Jun-06 02:00N 09°22' W 079°55'0 0.0
2018-Jun-06 01:30N 09°22' W 079°55'0 0.0
2018-Jun-06 01:00N 09°22' W 079°55'0 0.0
2018-Jun-06 00:30N 09°22' W 079°55'0 0.1
2018-Jun-06 00:00N 09°22' W 079°55'0 0.0
2018-Jun-05 23:30N 09°22' W 079°55'0 0.0
2018-Jun-05 23:00N 09°22' W 079°55'0 0.0
2018-Jun-05 22:30N 09°22' W 079°55'0 0.0
2018-Jun-05 22:00N 09°22' W 079°55'0 0.2
2018-Jun-05 21:30N 09°22' W 079°55'0 0.1
2018-Jun-05 21:00N 09°22' W 079°56'0 0.1
2018-Jun-05 20:30N 09°22' W 079°56'0 0.0
2018-Jun-05 20:00N 09°22' W 079°56'0 0.1
2018-Jun-05 19:30N 09°22' W 079°56'0 0.1
2018-Jun-05 19:00N 09°22' W 079°56'0 0.1
2018-Jun-05 18:30N 09°22' W 079°56'0 0.0
2018-Jun-05 18:00N 09°22' W 079°56'0 0.0
2018-Jun-05 17:30N 09°22' W 079°56'0 0.0
2018-Jun-05 17:00N 09°22' W 079°56'0 0.0
2018-Jun-05 16:30N 09°22' W 079°55'0 0.1
2018-Jun-05 16:00N 09°22' W 079°55'0 0.2
2018-Jun-05 15:30N 09°22' W 079°55'1 1.8
2018-Jun-05 15:00N 09°21' W 079°55'3 6.1
2018-Jun-05 14:30N 09°18' W 079°55'1 2.8
2018-Jun-05 14:00N 09°17' W 079°55'0 0.8
2018-Jun-05 13:30N 09°16' W 079°55'0 0.6
2018-Jun-05 13:00N 09°16' W 079°55'1 2.7
2018-Jun-05 12:31N 09°15' W 079°55'5 9.2
2018-Jun-05 11:59N 09°11' W 079°52'  
Track history (hours):
 
Tides and Currents Weather Stations Pressure Air Temp Water Temp Dewpoint Dewpoint Depression Visibility Wind Speed Wind Dir Waves Ship Positions

Gan-tribute

Last reported at 2018-Jun-06 05:25 UTC. Time now 2018-Jun-22 13:30 UTC.
Position N 09°39' W 079°58'.
Warning: this ship's position is 16 days out of date.

Length 183 m; draft 8.1 m.

Type: Tanker. MMSI: 311036600.

Date/timePositionNaut miles runAvg speedWind from/ knotsBaromVisibWave heightAir tempDewpointWater temp
2018-Jun-06 05:25N 09°39' W 079°58'511.6
2018-Jun-06 04:59N 09°34' W 079°56'612.9
2018-Jun-06 04:30N 09°28' W 079°55'612.4
2018-Jun-06 04:01N 09°22' W 079°55'0 0.8
2018-Jun-06 03:30N 09°22' W 079°55'0 0.0
2018-Jun-06 03:00N 09°22' W 079°55'0 0.0
2018-Jun-06 02:30N 09°22' W 079°55'0 0.1
2018-Jun-06 02:00N 09°22' W 079°55'0 0.0
2018-Jun-06 01:30N 09°22' W 079°55'0 0.0
2018-Jun-06 01:00N 09°22' W 079°55'0 0.0
2018-Jun-06 00:30N 09°22' W 079°55'0 0.1
2018-Jun-06 00:00N 09°22' W 079°55'0 0.0
2018-Jun-05 23:30N 09°22' W 079°55'0 0.0
2018-Jun-05 23:00N 09°22' W 079°55'0 0.0
2018-Jun-05 22:30N 09°22' W 079°55'0 0.0
2018-Jun-05 22:00N 09°22' W 079°55'0 0.2
2018-Jun-05 21:30N 09°22' W 079°55'0 0.1
2018-Jun-05 21:00N 09°22' W 079°56'0 0.1
2018-Jun-05 20:30N 09°22' W 079°56'0 0.0
2018-Jun-05 20:00N 09°22' W 079°56'0 0.1
2018-Jun-05 19:30N 09°22' W 079°56'0 0.1
2018-Jun-05 19:00N 09°22' W 079°56'0 0.1
2018-Jun-05 18:30N 09°22' W 079°56'0 0.0
2018-Jun-05 18:00N 09°22' W 079°56'0 0.0
2018-Jun-05 17:30N 09°22' W 079°56'0 0.0
2018-Jun-05 17:00N 09°22' W 079°56'0 0.0
2018-Jun-05 16:30N 09°22' W 079°55'0 0.1
2018-Jun-05 16:00N 09°22' W 079°55'0 0.2
2018-Jun-05 15:30N 09°22' W 079°55'1 1.8
2018-Jun-05 15:00N 09°21' W 079°55'3 6.1
2018-Jun-05 14:30N 09°18' W 079°55'1 2.8
2018-Jun-05 14:00N 09°17' W 079°55'0 0.8
2018-Jun-05 13:30N 09°16' W 079°55'0 0.6
2018-Jun-05 13:00N 09°16' W 079°55'1 2.7
2018-Jun-05 12:31N 09°15' W 079°55'5 9.2
2018-Jun-05 11:59N 09°11' W 079°52'  

Dump ship's entire track history